Airfield :
LOGIN :

Register | Disclaimer

   EN    FR    IT 

 










Legend :    VFR   Marginal VFR   IFR   Intensive IFR   Very Intensive IFR
Visi :
Ceiling :
>= 8 km
>= 3000ft
5 to 8 km
1000 to 3000 ft
1500m to 5 km
500 to 1000 ft
800 to 1500m
200 to 500 ft
< 800m
< 200 ft
Symbols :   Thunderstorms  Fog  Heavy snow  Heavy precipitations  Wind > 20 kt
SIGMETs :     Misc.  Thunderstorms  Icing  Turbulence  Mountain Waves  Volcanic Ashes






- Airport Elevation : 202 ft
- IATA code : LGW


EGKK - London Gatwick

CURRENT METAR :
  • 232150Z 21006KT 9999 BKN027 11/09 Q1024

EXPIRED METARs :
  • 232120Z 21005KT 9999 BKN029 10/09 Q1024
  • 232050Z 19005KT 9999 BKN029 10/08 Q1025
  • 232020Z 19005KT 9999 BKN029 10/08 Q1025
  • 231950Z 18004KT 9999 FEW014 SCT021 BKN031 10/08 Q1025
  • 231920Z VRB03KT 9999 FEW020 SCT025 10/08 Q1025
  • 231850Z 18004KT 9999 FEW016 BKN027 09/07 Q1025

TAF TAF EGKK
Valid from the 23 at 18:00 until the 25 at 00:00 UTC


231655Z 2318/2424 20004KT 9999 FEW025 SCT045
TEMPO 2323/2410 8000 -RADZ BKN010
PROB30
TEMPO 2323/2408 4000 RADZ BKN007
PROB30
TEMPO 2421/2424 BKN010



MET'MAP, your aeronautical weather chart ! - Copyright ORBIFLY December 2007 - Disclaimer

ORBIFLY MET'MAP TEAM :

Programming & Development : Alexandra Zaïnal
Concept & original design : Baudouin d'Aumeries
Assistance for programming : Marc-Olivier Méhu
Technical & hardware support : Manuel Goepfert

Contact : metmap@orbifly.com




SOURCES & CREDITS :

   NOAA